MYX5 weather

Public forecast

Using degrees Celsius for public forecast. Weather courtesy of forecast.io.

Closest aviation weather report (METAR) to Cistern Field

Closest report is Lynden Pindling International Airport, 49.9 nm (92.4 km) SSE. Retrieved 2020/08/10 05:00 UTC (6 minutes ago):

MYNN 100500Z 10004KT 9999 FEW025 28/24 A3013

Closest aviation forecast (TAF) to Cistern Field

Forecast is more than 12 hours old.

Closest forecast is Lynden Pindling International Airport, 49.9 nm (92.4 km) SSE. Retrieved 2020/08/09 12:36 UTC (17 hours ago):

TAF MYNN 091000Z 0912/1012 10010KT 9999 FEW018 SCT040 TEMPO 0912/0918 8000 SHRA SCT018CB